Time;durP1;ratioP1;P1;durP2;ratioP2;P2;SDS_P1;SDS_P2;PMS_P1;PMS_P2;Temp;Humidity;BMP_temperature;BMP_pressure;BME280_temperature;BME280_humidity;BME280_pressure;Samples;Min_cycle;Max_cycle;Signal;HPM_P1;HPM_P2
2022/01/09 00:00:11;;;;;;;12.70;7.95;;;-6.20;99.90;;;;;;5072407;28;20108;-75
2022/01/09 00:02:37;;;;;;;16.35;7.90;;;-6.20;99.90;;;;;;5072213;28;20025;-75
2022/01/09 00:05:03;;;;;;;14.15;8.63;;;-6.20;99.90;;;;;;5072102;28;20371;-78
2022/01/09 00:07:29;;;;;;;11.02;6.32;;;-6.10;99.90;;;;;;5072042;28;20380;-74
2022/01/09 00:09:56;;;;;;;11.40;7.47;;;-6.10;99.90;;;;;;5072346;28;20035;-74
2022/01/09 00:12:23;;;;;;;11.93;6.10;;;-6.10;99.90;;;;;;5072139;28;20032;-76
2022/01/09 00:14:48;;;;;;;11.52;7.03;;;-6.20;99.90;;;;;;5071923;28;20020;-74
2022/01/09 00:17:14;;;;;;;15.75;8.98;;;-6.30;99.90;;;;;;5071880;28;20073;-75
2022/01/09 00:19:40;;;;;;;15.32;8.07;;;-6.40;99.90;;;;;;5072181;28;20375;-74
2022/01/09 00:22:06;;;;;;;14.52;8.05;;;-6.30;99.90;;;;;;5070873;28;20506;-74
2022/01/09 00:24:31;;;;;;;15.10;8.05;;;-6.30;99.90;;;;;;5071762;28;20372;-76
2022/01/09 00:26:57;;;;;;;17.60;8.95;;;-6.20;99.90;;;;;;5071726;28;20029;-78
2022/01/09 00:29:23;;;;;;;15.23;7.32;;;-6.30;99.90;;;;;;5076013;28;20029;-77
2022/01/09 00:31:48;;;;;;;15.82;7.60;;;-6.30;99.90;;;;;;5074784;28;20036;-77
2022/01/09 00:34:14;;;;;;;14.32;7.72;;;-6.30;99.90;;;;;;5076152;28;20024;-76
2022/01/09 00:36:40;;;;;;;12.85;7.13;;;-6.30;99.90;;;;;;5075927;28;20032;-76
2022/01/09 00:39:05;;;;;;;16.63;8.20;;;-6.40;99.90;;;;;;5075793;28;20426;-76
2022/01/09 00:41:31;;;;;;;16.23;8.68;;;-6.40;99.90;;;;;;5074520;28;20055;-77
2022/01/09 00:43:57;;;;;;;16.13;7.53;;;-6.40;99.90;;;;;;5075883;28;20017;-75
2022/01/09 00:46:22;;;;;;;15.73;7.30;;;-6.40;99.90;;;;;;5075562;28;20479;-75
2022/01/09 00:48:48;;;;;;;15.30;7.88;;;-6.50;99.90;;;;;;5075825;28;20082;-76
2022/01/09 00:51:14;;;;;;;16.58;8.38;;;-6.50;99.90;;;;;;5075999;28;20041;-74
2022/01/09 00:53:39;;;;;;;14.80;7.78;;;-6.60;99.90;;;;;;5075545;28;20052;-75
2022/01/09 00:56:05;;;;;;;14.38;7.70;;;-6.60;99.90;;;;;;5075567;28;20036;-76
2022/01/09 00:58:31;;;;;;;16.95;7.60;;;-6.60;99.90;;;;;;5075500;28;20020;-75
2022/01/09 01:00:56;;;;;;;11.52;7.45;;;-6.70;99.90;;;;;;5075389;28;20024;-77
2022/01/09 01:03:22;;;;;;;11.57;7.32;;;-6.60;99.90;;;;;;5075476;28;20096;-76
2022/01/09 01:05:48;;;;;;;11.63;7.32;;;-6.60;99.90;;;;;;5075642;28;20574;-77
2022/01/09 01:08:13;;;;;;;12.55;8.15;;;-6.50;99.90;;;;;;5075442;28;20028;-76
2022/01/09 01:10:39;;;;;;;15.60;8.68;;;-6.50;99.90;;;;;;5075391;28;20028;-76
2022/01/09 01:13:05;;;;;;;16.73;8.43;;;-6.50;99.90;;;;;;5075765;28;20041;-79
2022/01/09 01:15:31;;;;;;;17.48;8.80;;;-6.50;99.90;;;;;;5075417;28;20024;-75
2022/01/09 01:17:57;;;;;;;16.67;8.43;;;-6.50;99.90;;;;;;5075664;28;20482;-77
2022/01/09 01:20:23;;;;;;;21.90;9.13;;;-6.50;99.90;;;;;;5080194;28;20023;-76
2022/01/09 01:22:51;;;;;;;14.65;8.07;;;-6.50;99.90;;;;;;5078978;28;20024;-78
2022/01/09 01:25:19;;;;;;;16.00;8.93;;;-6.50;99.90;;;;;;5079072;28;20052;-76
2022/01/09 01:27:44;;;;;;;16.15;9.55;;;-6.40;99.90;;;;;;5079304;28;20059;-77
2022/01/09 01:30:11;;;;;;;18.67;8.68;;;-6.40;99.90;;;;;;5079622;28;20476;-77
2022/01/09 01:32:37;;;;;;;14.35;8.40;;;-6.50;99.90;;;;;;5079149;28;20495;-77
2022/01/09 01:35:03;;;;;;;23.55;9.65;;;-6.50;99.90;;;;;;5079399;28;20464;-74
2022/01/09 01:37:29;;;;;;;19.23;9.55;;;-6.50;99.90;;;;;;5078686;28;20051;-76
2022/01/09 01:39:55;;;;;;;16.65;8.63;;;-6.40;99.90;;;;;;5078796;28;20028;-76
2022/01/09 01:42:20;;;;;;;16.90;8.90;;;-6.40;99.90;;;;;;5078243;28;20021;-76
2022/01/09 01:44:48;;;;;;;18.92;9.40;;;-6.40;99.90;;;;;;5077688;28;20379;-77
2022/01/09 01:47:16;;;;;;;21.73;11.30;;;-6.40;99.90;;;;;;5076158;28;20368;-76
2022/01/09 01:49:42;;;;;;;22.38;11.30;;;-6.40;99.90;;;;;;5074857;28;20538;-75
2022/01/09 01:52:09;;;;;;;27.42;11.88;;;-6.10;99.90;;;;;;5073103;28;20040;-76
2022/01/09 01:54:35;;;;;;;24.65;11.20;;;-6.40;99.90;;;;;;5074398;28;20013;-77
2022/01/09 01:57:03;;;;;;;22.55;11.13;;;-6.30;99.90;;;;;;5074330;28;20028;-76
2022/01/09 01:59:29;;;;;;;22.45;10.90;;;-6.20;99.90;;;;;;5074539;28;20025;-74
2022/01/09 02:01:55;;;;;;;22.52;12.55;;;-6.20;99.90;;;;;;5074405;28;20052;-77
2022/01/09 02:04:21;;;;;;;28.98;11.63;;;-6.10;99.90;;;;;;5074541;28;20056;-76
2022/01/09 02:06:47;;;;;;;21.48;11.50;;;-6.10;99.90;;;;;;5074150;28;20357;-76
2022/01/09 02:09:13;;;;;;;23.98;11.70;;;-6.10;99.90;;;;;;5074109;28;20111;-76
2022/01/09 02:11:38;;;;;;;25.65;12.88;;;-6.10;99.90;;;;;;5072823;28;20123;-76
2022/01/09 02:14:04;;;;;;;22.20;10.57;;;-6.10;99.90;;;;;;5072634;28;20051;-76
2022/01/09 02:16:30;;;;;;;25.15;12.38;;;-6.10;99.90;;;;;;5073861;28;20103;-76
2022/01/09 02:18:58;;;;;;;21.75;11.65;;;-6.10;99.90;;;;;;5073788;28;20411;-77
2022/01/09 02:21:26;;;;;;;17.95;10.18;;;-6.10;99.90;;;;;;5073763;28;20016;-75
2022/01/09 02:23:52;;;;;;;26.58;11.05;;;-6.10;99.90;;;;;;5073724;28;20021;-75
2022/01/09 02:26:19;;;;;;;24.17;11.43;;;-6.10;99.90;;;;;;5073633;28;20029;-74
2022/01/09 02:28:46;;;;;;;22.42;10.82;;;-6.20;99.90;;;;;;5073551;28;20040;-74
2022/01/09 02:31:13;;;;;;;24.13;11.70;;;-6.20;99.90;;;;;;5072469;28;20056;-75
2022/01/09 02:33:39;;;;;;;26.58;11.23;;;-6.20;99.90;;;;;;5073785;28;20487;-75
2022/01/09 02:36:05;;;;;;;26.35;12.10;;;-6.20;99.90;;;;;;5073432;28;20046;-75
2022/01/09 02:38:30;;;;;;;23.45;11.15;;;-6.30;99.90;;;;;;5073404;28;20024;-75
2022/01/09 02:40:56;;;;;;;22.48;10.00;;;-6.30;99.90;;;;;;5073377;28;20021;-75
2022/01/09 02:43:23;;;;;;;21.85;10.75;;;-6.40;99.90;;;;;;5073383;28;20025;-75
2022/01/09 02:45:56;;;;;;;20.52;9.40;;;-6.40;99.90;;;;;;5073124;28;20027;-74
2022/01/09 02:48:22;;;;;;;20.20;9.15;;;-6.50;99.90;;;;;;5073210;28;20013;-76
2022/01/09 02:51:02;;;;;;;20.20;10.80;;;-6.50;99.90;;;;;;5072444;28;20376;-76
2022/01/09 02:53:32;;;;;;;18.88;10.80;;;-6.50;99.90;;;;;;5071923;28;20040;-73
2022/01/09 02:55:58;;;;;;;20.25;10.45;;;-6.50;99.90;;;;;;5073159;28;20031;-75
2022/01/09 02:58:24;;;;;;;17.83;8.07;;;-6.40;99.90;;;;;;5073288;28;20016;-75
2022/01/09 03:00:50;;;;;;;19.77;10.68;;;-6.40;99.90;;;;;;5072058;28;20044;-77
2022/01/09 03:03:16;;;;;;;15.27;9.10;;;-6.50;99.90;;;;;;5073019;28;20039;-76
2022/01/09 03:05:42;;;;;;;18.70;9.00;;;-6.50;99.90;;;;;;5073081;28;20021;-76
2022/01/09 03:08:08;;;;;;;21.38;9.65;;;-6.50;99.90;;;;;;5072772;28;20423;-77
2022/01/09 03:10:34;;;;;;;20.98;8.82;;;-6.50;99.90;;;;;;5072882;28;20028;-74
2022/01/09 03:13:00;;;;;;;15.73;8.05;;;-6.40;99.90;;;;;;5072698;28;20059;-76
2022/01/09 03:15:26;;;;;;;17.80;9.80;;;-6.40;99.90;;;;;;5072610;28;20028;-76
2022/01/09 03:17:53;;;;;;;19.08;9.75;;;-6.30;99.90;;;;;;5072451;28;20464;-76
2022/01/09 03:20:23;;;;;;;17.45;9.32;;;-6.30;99.90;;;;;;5072625;28;20033;-76
2022/01/09 03:22:49;;;;;;;23.20;9.20;;;-6.20;99.90;;;;;;5072407;28;20024;-76
2022/01/09 03:25:15;;;;;;;19.02;10.35;;;-6.20;99.90;;;;;;5071147;28;20028;-76
2022/01/09 03:27:45;;;;;;;16.83;9.48;;;-6.10;99.90;;;;;;5072253;28;20506;-77
2022/01/09 03:30:11;;;;;;;17.38;9.80;;;-6.10;99.90;;;;;;5072573;28;20031;-76
2022/01/09 03:32:38;;;;;;;19.50;9.57;;;-6.10;99.90;;;;;;5071060;28;20047;-75
2022/01/09 03:35:06;;;;;;;18.00;9.77;;;-6.10;99.90;;;;;;5072448;28;20027;-76
2022/01/09 03:37:32;;;;;;;21.70;9.95;;;-6.10;99.90;;;;;;5072133;28;20082;-76
2022/01/09 03:39:58;;;;;;;19.10;9.82;;;-6.10;99.90;;;;;;5072493;28;20032;-76
2022/01/09 03:42:23;;;;;;;24.50;11.27;;;-6.10;99.90;;;;;;5072218;28;20489;-76
2022/01/09 03:44:49;;;;;;;20.85;10.27;;;-6.10;99.90;;;;;;5072352;28;20099;-76
2022/01/09 03:47:15;;;;;;;21.58;9.80;;;-6.10;99.90;;;;;;5072201;28;20103;-76
2022/01/09 03:49:40;;;;;;;28.67;10.85;;;-6.10;99.90;;;;;;5072398;28;20016;-76
2022/01/09 03:52:06;;;;;;;25.45;10.40;;;-6.10;99.90;;;;;;5072127;28;20502;-76
2022/01/09 03:54:32;;;;;;;18.77;10.88;;;-6.10;99.90;;;;;;5072235;28;20104;-76
2022/01/09 03:56:58;;;;;;;20.00;10.95;;;-6.10;99.90;;;;;;5072026;28;20127;-76
2022/01/09 03:59:23;;;;;;;27.02;11.07;;;-6.00;99.90;;;;;;5071965;28;20472;-77
2022/01/09 04:01:50;;;;;;;20.40;11.05;;;-6.00;99.90;;;;;;5071172;28;20024;-75
2022/01/09 04:04:16;;;;;;;20.88;10.40;;;-6.00;99.90;;;;;;5072044;28;20067;-76
2022/01/09 04:06:50;;;;;;;28.05;13.38;;;-6.00;99.90;;;;;;5071997;28;20028;-76
2022/01/09 04:09:38;;;;;;;20.42;12.15;;;-6.00;99.90;;;;;;5072124;28;20028;-76
2022/01/09 04:12:15;;;;;;;21.75;11.75;;;-6.00;99.90;;;;;;5071726;28;20032;-73
2022/01/09 04:14:47;;;;;;;29.17;12.13;;;-6.00;99.90;;;;;;5072010;28;20017;-75
2022/01/09 04:17:25;;;;;;;23.77;11.00;;;-6.00;99.90;;;;;;5071963;28;20016;-75
2022/01/09 04:19:51;;;;;;;21.08;12.02;;;-6.00;99.90;;;;;;5071928;28;20111;-75
2022/01/09 04:22:17;;;;;;;21.85;10.82;;;-6.00;99.90;;;;;;5071879;28;20100;-74
2022/01/09 04:24:42;;;;;;;17.45;9.48;;;-6.10;99.90;;;;;;5071868;28;20035;-76
2022/01/09 04:27:08;;;;;;;19.48;10.18;;;-6.10;99.90;;;;;;5071662;28;20037;-73
2022/01/09 04:29:34;;;;;;;21.58;10.68;;;-6.00;99.90;;;;;;5071770;28;20078;-74
2022/01/09 04:31:59;;;;;;;26.90;10.60;;;-6.00;99.90;;;;;;5071862;28;20115;-76
2022/01/09 04:34:25;;;;;;;19.58;9.80;;;-6.10;99.90;;;;;;5071574;28;20029;-73
2022/01/09 04:36:51;;;;;;;20.92;9.98;;;-6.10;99.90;;;;;;5071501;28;20029;-74
2022/01/09 04:39:17;;;;;;;19.05;10.40;;;-6.00;99.90;;;;;;5072007;28;20029;-74
2022/01/09 04:41:42;;;;;;;18.77;9.70;;;-6.10;99.90;;;;;;5072241;28;20023;-75
2022/01/09 04:44:08;;;;;;;21.73;9.95;;;-6.10;99.90;;;;;;5070357;28;20373;-77
2022/01/09 04:46:42;;;;;;;16.23;9.45;;;-6.10;99.90;;;;;;5071413;28;20058;-74
2022/01/09 04:49:08;;;;;;;24.38;10.40;;;-6.00;99.90;;;;;;5070445;28;20115;-74
2022/01/09 04:51:34;;;;;;;23.70;10.35;;;-6.00;99.90;;;;;;5071297;28;20178;-74
2022/01/09 04:54:00;;;;;;;19.77;10.27;;;-6.00;99.90;;;;;;5071560;28;20031;-74
2022/01/09 04:56:28;;;;;;;20.50;9.70;;;-5.90;99.90;;;;;;5071376;28;20039;-75
2022/01/09 04:58:53;;;;;;;17.30;9.10;;;-5.90;99.90;;;;;;5071663;28;20073;-73
2022/01/09 05:01:19;;;;;;;19.38;10.65;;;-5.90;99.90;;;;;;5071451;28;20024;-74
2022/01/09 05:03:45;;;;;;;22.80;10.25;;;-5.90;99.90;;;;;;5071436;28;20088;-76
2022/01/09 05:06:10;;;;;;;24.13;11.70;;;-6.00;99.90;;;;;;5071491;28;20104;-74
2022/01/09 05:08:36;;;;;;;17.67;10.35;;;-6.00;99.90;;;;;;5071438;28;20021;-74
2022/01/09 05:11:02;;;;;;;23.63;10.70;;;-6.00;99.90;;;;;;5071434;28;20048;-75
2022/01/09 05:13:27;;;;;;;18.15;10.52;;;-6.00;99.90;;;;;;5073223;28;20078;-74
2022/01/09 05:15:55;;;;;;;19.90;10.13;;;-5.90;99.90;;;;;;5074709;28;20028;-74
2022/01/09 05:18:20;;;;;;;19.88;11.25;;;-5.90;99.90;;;;;;5073625;28;20028;-73
2022/01/09 05:20:46;;;;;;;20.15;10.70;;;-5.90;99.90;;;;;;5074954;28;20025;-74
2022/01/09 05:23:12;;;;;;;18.73;10.18;;;-5.90;99.90;;;;;;5074713;28;20028;-74
2022/01/09 05:25:38;;;;;;;20.92;10.18;;;-5.90;99.90;;;;;;5074736;28;20039;-74
2022/01/09 05:28:04;;;;;;;24.58;11.13;;;-5.90;99.90;;;;;;5074629;28;20115;-75
2022/01/09 05:30:30;;;;;;;19.67;10.10;;;-5.80;99.90;;;;;;5074660;28;20482;-75
2022/01/09 05:32:55;;;;;;;22.05;10.88;;;-5.90;99.90;;;;;;5073204;28;20036;-72
2022/01/09 05:35:22;;;;;;;17.77;9.73;;;-5.90;99.90;;;;;;5073296;28;20511;-76
2022/01/09 05:37:48;;;;;;;17.65;9.23;;;-5.80;99.90;;;;;;5073248;28;20024;-73
2022/01/09 05:40:14;;;;;;;18.65;10.70;;;-5.80;99.90;;;;;;5074587;28;20032;-74
2022/01/09 05:42:40;;;;;;;22.42;10.50;;;-5.80;99.90;;;;;;5073135;28;20384;-74
2022/01/09 05:45:08;;;;;;;17.55;10.10;;;-5.80;99.90;;;;;;5074654;28;20111;-75
2022/01/09 05:47:33;;;;;;;22.20;10.10;;;-5.80;99.90;;;;;;5073027;28;20114;-73
2022/01/09 05:49:59;;;;;;;18.52;10.07;;;-5.80;99.90;;;;;;5074195;28;20036;-75
2022/01/09 05:52:25;;;;;;;20.33;11.65;;;-5.70;99.90;;;;;;5074210;28;20056;-73
2022/01/09 05:54:50;;;;;;;16.70;10.75;;;-5.80;99.90;;;;;;5074094;28;20021;-74
2022/01/09 05:57:16;;;;;;;23.63;10.93;;;-5.80;99.90;;;;;;5074312;28;20028;-74
2022/01/09 05:59:42;;;;;;;20.70;11.85;;;-5.80;99.90;;;;;;5072847;28;20019;-73
2022/01/09 06:02:08;;;;;;;21.65;12.43;;;-5.80;99.90;;;;;;5074257;28;20020;-74
2022/01/09 06:04:33;;;;;;;23.80;14.00;;;-5.80;99.90;;;;;;5074114;28;20391;-74
2022/01/09 06:06:59;;;;;;;22.08;10.88;;;-5.70;99.90;;;;;;5073895;28;20035;-73
2022/01/09 06:09:25;;;;;;;31.02;13.07;;;-5.70;99.90;;;;;;5072907;28;20078;-74
2022/01/09 06:11:50;;;;;;;22.63;12.27;;;-5.70;99.90;;;;;;5073646;28;20036;-74
2022/01/09 06:14:16;;;;;;;26.92;13.98;;;-5.80;99.90;;;;;;5073934;28;20056;-74
2022/01/09 06:16:42;;;;;;;21.13;12.23;;;-5.80;99.90;;;;;;5073941;28;20418;-74
2022/01/09 06:19:08;;;;;;;22.80;11.10;;;-5.80;99.90;;;;;;5073808;28;20056;-73
2022/01/09 06:21:34;;;;;;;22.77;10.95;;;-5.80;99.90;;;;;;5074128;28;20433;-75
2022/01/09 06:23:59;;;;;;;22.02;10.20;;;-5.80;99.90;;;;;;5073290;28;20092;-77
2022/01/09 06:26:25;;;;;;;20.88;10.30;;;-5.80;99.90;;;;;;5073230;28;20032;-74
2022/01/09 06:28:51;;;;;;;21.60;10.70;;;-5.70;99.90;;;;;;5073452;28;20439;-75
2022/01/09 06:31:17;;;;;;;20.50;9.88;;;-5.70;99.90;;;;;;5073396;28;20021;-74
2022/01/09 06:33:43;;;;;;;19.63;10.55;;;-5.70;99.90;;;;;;5072239;28;20035;-73
2022/01/09 06:36:09;;;;;;;22.42;11.32;;;-5.70;99.90;;;;;;5073486;28;20013;-76
2022/01/09 06:38:37;;;;;;;22.50;9.63;;;-5.70;99.90;;;;;;5072584;28;20029;-76
2022/01/09 06:41:03;;;;;;;19.05;9.25;;;-5.70;99.90;;;;;;5072536;28;20438;-75
2022/01/09 06:43:28;;;;;;;21.30;10.10;;;-5.70;99.90;;;;;;5073363;28;20096;-76
2022/01/09 06:45:54;;;;;;;20.95;10.23;;;-5.70;99.90;;;;;;5073224;28;20086;-77
2022/01/09 06:48:19;;;;;;;21.77;10.38;;;-4.90;99.90;;;;;;5073199;28;20009;-77
2022/01/09 06:50:45;;;;;;;15.45;9.43;;;-4.90;99.90;;;;;;5073022;28;20541;-75
2022/01/09 06:53:11;;;;;;;20.40;10.75;;;-5.10;99.90;;;;;;5075071;28;20082;-75
2022/01/09 06:55:37;;;;;;;21.33;9.27;;;-5.20;99.90;;;;;;5073117;28;20489;-76
2022/01/09 06:58:02;;;;;;;21.13;10.05;;;-5.20;99.90;;;;;;5073314;28;20494;-74
2022/01/09 07:00:28;;;;;;;18.63;9.35;;;-5.30;99.90;;;;;;5072125;28;20047;-75
2022/01/09 07:02:54;;;;;;;16.75;9.77;;;-5.30;99.90;;;;;;5073392;28;20111;-77
2022/01/09 07:05:19;;;;;;;21.02;11.15;;;-5.30;99.90;;;;;;5073262;28;20372;-75
2022/01/09 07:07:45;;;;;;;20.00;10.70;;;-5.30;99.90;;;;;;5073154;28;20028;-75
2022/01/09 07:10:11;;;;;;;22.02;11.13;;;-5.20;99.90;;;;;;5073026;28;20031;-75
2022/01/09 07:12:37;;;;;;;22.42;10.85;;;-5.20;99.90;;;;;;5071577;28;20044;-75
2022/01/09 07:15:04;;;;;;;22.73;12.10;;;-5.20;99.90;;;;;;5073002;28;20186;-75
2022/01/09 07:17:30;;;;;;;22.10;13.50;;;-5.10;99.90;;;;;;5072892;28;20025;-75
2022/01/09 07:19:56;;;;;;;22.65;13.10;;;-5.00;99.90;;;;;;5073062;28;20392;-75
2022/01/09 07:22:22;;;;;;;19.30;11.20;;;-4.90;99.90;;;;;;5073035;28;20042;-76
2022/01/09 07:24:47;;;;;;;17.63;10.57;;;-4.80;99.90;;;;;;5072814;28;20477;-76
2022/01/09 07:27:13;;;;;;;19.75;9.90;;;-4.80;99.90;;;;;;5072625;28;20052;-76
2022/01/09 07:29:39;;;;;;;22.73;12.18;;;-4.70;99.90;;;;;;5072708;28;20028;-76
2022/01/09 07:32:05;;;;;;;26.88;12.85;;;-4.70;99.90;;;;;;5072538;28;20096;-76
2022/01/09 07:34:31;;;;;;;27.70;14.07;;;-4.60;99.90;;;;;;5071329;28;20025;-75
2022/01/09 07:36:56;;;;;;;29.15;14.05;;;-4.50;99.90;;;;;;5072400;28;20036;-75
2022/01/09 07:39:22;;;;;;;29.77;13.68;;;-4.50;99.90;;;;;;5072668;28;20460;-76
2022/01/09 07:41:48;;;;;;;24.55;12.93;;;-4.40;99.90;;;;;;5071489;28;20040;-75
2022/01/09 07:44:14;;;;;;;24.90;11.38;;;-4.40;99.90;;;;;;5072372;28;20546;-75
2022/01/09 07:46:40;;;;;;;20.33;11.95;;;-4.30;99.90;;;;;;5072611;28;20103;-76
2022/01/09 07:49:05;;;;;;;23.85;12.95;;;-4.40;99.90;;;;;;5072661;28;20032;-74
2022/01/09 07:51:31;;;;;;;21.55;11.77;;;-4.40;99.90;;;;;;5072369;28;20025;-75
2022/01/09 07:53:57;;;;;;;23.90;11.57;;;-4.30;99.90;;;;;;5071206;28;20029;-75
2022/01/09 07:56:22;;;;;;;22.80;12.40;;;-4.20;99.90;;;;;;5072341;28;20059;-75
2022/01/09 07:58:48;;;;;;;30.83;17.13;;;-4.20;99.90;;;;;;5072350;28;20028;-75
2022/01/09 08:01:14;;;;;;;43.42;20.38;;;-4.20;99.90;;;;;;5071071;28;20422;-75
2022/01/09 08:03:39;;;;;;;27.27;15.70;;;-4.10;99.90;;;;;;5072288;28;20020;-75
2022/01/09 08:06:06;;;;;;;25.90;13.82;;;-3.60;99.90;;;;;;5070976;28;20112;-75
2022/01/09 08:08:32;;;;;;;28.20;14.13;;;-4.00;99.90;;;;;;5072640;28;20412;-74
2022/01/09 08:10:57;;;;;;;32.95;18.17;;;-3.90;99.90;;;;;;5072150;28;20062;-75
2022/01/09 08:13:23;;;;;;;30.60;15.45;;;-3.80;99.90;;;;;;5072461;28;20028;-75
2022/01/09 08:15:49;;;;;;;25.00;13.05;;;-3.70;99.90;;;;;;5070879;28;20070;-76
2022/01/09 08:18:14;;;;;;;24.67;11.98;;;-3.60;99.90;;;;;;5071025;28;20029;-75
2022/01/09 08:20:40;;;;;;;22.17;12.40;;;-3.50;99.90;;;;;;5072075;28;20052;-77
2022/01/09 08:23:06;;;;;;;28.85;16.05;;;-3.40;99.90;;;;;;5073597;28;20052;-74
2022/01/09 08:25:31;;;;;;;24.70;13.98;;;-3.40;99.90;;;;;;5073248;28;20028;-75
2022/01/09 08:27:57;;;;;;;36.15;18.35;;;-3.30;99.90;;;;;;5072081;28;20040;-74
2022/01/09 08:30:24;;;;;;;56.45;25.17;;;-3.20;99.90;;;;;;5073660;28;20533;-73
2022/01/09 08:32:52;;;;;;;59.88;30.35;;;-3.20;99.90;;;;;;5072026;28;20063;-74
2022/01/09 08:35:18;;;;;;;31.08;16.83;;;-3.10;99.90;;;;;;5072308;28;20035;-73
2022/01/09 08:37:44;;;;;;;35.00;16.75;;;-3.10;99.90;;;;;;5072574;28;20021;-73
2022/01/09 08:40:13;;;;;;;24.48;13.02;;;-3.00;99.90;;;;;;5072022;28;20017;-73
2022/01/09 08:42:40;;;;;;;29.50;14.70;;;-2.90;99.90;;;;;;5072255;28;20082;-73
2022/01/09 08:45:07;;;;;;;73.30;36.33;;;-2.80;99.90;;;;;;5070903;28;20031;-74
2022/01/09 08:47:38;;;;;;;30.58;18.10;;;-2.80;99.90;;;;;;5072288;28;20020;-76
2022/01/09 08:50:05;;;;;;;28.10;14.48;;;-2.50;99.90;;;;;;5075883;28;20479;-74
2022/01/09 08:52:31;;;;;;;22.05;12.63;;;-2.40;99.90;;;;;;5075616;28;20039;-73
2022/01/09 08:54:57;;;;;;;19.20;12.50;;;-2.40;99.90;;;;;;5084642;28;20032;-75
2022/01/09 08:57:25;;;;;;;33.50;13.18;;;-2.30;99.90;;;;;;5095866;28;20024;-72
2022/01/09 08:59:50;;;;;;;19.98;12.65;;;-2.30;99.90;;;;;;5095905;28;20024;-75
2022/01/09 09:02:16;;;;;;;19.85;12.23;;;-2.30;99.90;;;;;;5095500;28;20028;-73
2022/01/09 09:04:42;;;;;;;21.65;12.30;;;-2.20;99.90;;;;;;5095584;28;20018;-73
2022/01/09 09:07:08;;;;;;;27.73;14.43;;;-2.20;99.90;;;;;;5095568;28;20375;-76
2022/01/09 09:09:33;;;;;;;26.00;14.15;;;-2.20;99.90;;;;;;5095406;28;20020;-74
2022/01/09 09:11:59;;;;;;;25.55;14.50;;;-2.10;99.90;;;;;;5095243;28;20035;-75
2022/01/09 09:14:25;;;;;;;25.10;14.43;;;-2.00;99.90;;;;;;5095469;28;20024;-73
2022/01/09 09:16:50;;;;;;;24.80;13.98;;;-2.00;99.90;;;;;;5095291;28;20084;-73
2022/01/09 09:19:16;;;;;;;22.17;12.50;;;-1.90;99.90;;;;;;5095124;28;20464;-73
2022/01/09 09:21:43;;;;;;;24.40;14.40;;;-1.90;99.90;;;;;;5095215;28;20353;-74
2022/01/09 09:24:09;;;;;;;20.88;12.95;;;-1.80;99.90;;;;;;5095090;28;20467;-74
2022/01/09 09:26:34;;;;;;;20.52;12.15;;;-1.80;99.90;;;;;;5095267;28;20067;-73
2022/01/09 09:29:00;;;;;;;24.40;14.80;;;-1.70;99.90;;;;;;5094869;28;20102;-74
2022/01/09 09:31:26;;;;;;;23.63;13.27;;;-1.70;99.90;;;;;;5095032;28;20036;-74
2022/01/09 09:33:51;;;;;;;26.80;13.93;;;-1.70;99.90;;;;;;5095018;28;20027;-73
2022/01/09 09:36:17;;;;;;;20.00;13.27;;;-1.60;99.90;;;;;;5094766;28;20024;-73
2022/01/09 09:38:43;;;;;;;23.92;14.07;;;-1.50;99.90;;;;;;5095065;28;20016;-73
2022/01/09 09:41:08;;;;;;;26.55;13.55;;;-1.50;99.90;;;;;;5093514;28;20509;-73
2022/01/09 09:43:34;;;;;;;20.45;13.45;;;-1.40;99.90;;;;;;5094613;28;20082;-75
2022/01/09 09:46:00;;;;;;;22.67;13.45;;;-1.40;99.90;;;;;;5094571;28;20020;-74
2022/01/09 09:48:26;;;;;;;20.70;11.48;;;-1.30;99.90;;;;;;5093200;28;20130;-74
2022/01/09 09:50:52;;;;;;;22.42;12.77;;;-1.30;99.90;;;;;;5094726;28;20486;-72
2022/01/09 09:53:18;;;;;;;23.50;12.68;;;-1.20;99.90;;;;;;5094547;28;20032;-75
2022/01/09 09:55:45;;;;;;;24.42;13.98;;;-1.20;99.90;;;;;;5094517;28;20024;-74
2022/01/09 09:58:11;;;;;;;23.50;14.25;;;-1.10;99.90;;;;;;5095882;28;20020;-75
2022/01/09 10:00:37;;;;;;;20.98;13.20;;;-0.90;99.90;;;;;;5094717;28;20039;-74
2022/01/09 10:03:03;;;;;;;19.73;11.90;;;-0.80;99.90;;;;;;5093668;28;20107;-74
2022/01/09 10:05:39;;;;;;;23.15;14.70;;;-0.90;99.90;;;;;;5094169;28;20036;-74
2022/01/09 10:08:09;;;;;;;30.73;15.27;;;-0.90;99.90;;;;;;5098818;28;20063;-74
2022/01/09 10:10:36;;;;;;;22.60;13.45;;;-0.90;99.90;;;;;;5094255;28;20032;-73
2022/01/09 10:13:14;;;;;;;20.40;11.38;;;-0.90;99.90;;;;;;5094262;28;20043;-73
2022/01/09 10:15:50;;;;;;;27.05;13.55;;;-0.90;99.90;;;;;;5093079;28;20028;-74
2022/01/09 10:18:42;;;;;;;27.63;15.98;;;-0.80;99.90;;;;;;5092939;28;20115;-74
2022/01/09 10:21:13;;;;;;;26.33;14.90;;;-0.90;99.90;;;;;;5092962;28;20027;-74
2022/01/09 10:24:07;;;;;;;22.65;14.25;;;-0.90;99.90;;;;;;5092973;28;20019;-75
2022/01/09 10:26:36;;;;;;;24.92;13.88;;;-0.90;99.90;;;;;;5093870;28;20085;-74
2022/01/09 10:29:03;;;;;;;24.55;13.05;;;-0.80;99.90;;;;;;5093667;28;20065;-74
2022/01/09 10:31:29;;;;;;;23.23;13.35;;;-0.70;99.90;;;;;;5093995;28;20047;-74
2022/01/09 10:34:01;;;;;;;24.33;13.90;;;-0.50;99.90;;;;;;5092482;28;20024;-73
2022/01/09 10:36:39;;;;;;;21.88;12.35;;;-0.40;99.90;;;;;;5092589;28;20031;-74
2022/01/09 10:39:11;;;;;;;22.63;14.48;;;-0.30;99.90;;;;;;5092631;28;20025;-75
2022/01/09 10:41:58;;;;;;;22.98;12.93;;;-0.30;99.90;;;;;;5092045;28;20031;-74
2022/01/09 10:44:35;;;;;;;24.48;14.32;;;-0.20;99.90;;;;;;5092102;28;20028;-73
2022/01/09 10:47:06;;;;;;;20.73;12.38;;;-0.20;99.90;;;;;;5093354;28;20514;-74
2022/01/09 10:49:57;;;;;;;23.75;12.20;;;-0.10;99.90;;;;;;5091492;28;20016;-74
2022/01/09 10:52:36;;;;;;;18.02;11.27;;;-0.10;99.90;;;;;;5090100;28;20040;-78
2022/01/09 10:55:08;;;;;;;21.95;11.48;;;0.00;99.90;;;;;;5090300;28;20039;-80
2022/01/09 10:57:37;;;;;;;18.40;11.90;;;0.10;99.90;;;;;;5091998;28;20482;-78
2022/01/09 11:00:15;;;;;;;22.83;14.20;;;0.20;99.90;;;;;;5092036;28;20020;-79
2022/01/09 11:02:41;;;;;;;23.20;12.25;;;0.20;99.90;;;;;;5091672;28;20030;-80
2022/01/09 11:05:07;;;;;;;18.42;11.82;;;0.50;99.90;;;;;;5092149;28;20024;-80
2022/01/09 11:07:34;;;;;;;19.73;12.13;;;0.30;99.90;;;;;;5091694;28;20422;-79
2022/01/09 11:10:00;;;;;;;16.10;10.45;;;0.30;99.90;;;;;;5091889;28;20062;-79
2022/01/09 11:12:34;;;;;;;18.90;11.55;;;0.30;99.90;;;;;;5091375;28;20551;-80
2022/01/09 11:15:01;;;;;;;20.52;12.23;;;0.40;99.90;;;;;;5091524;28;20035;-80
2022/01/09 11:17:28;;;;;;;21.45;12.73;;;0.40;99.90;;;;;;5091860;28;20064;-80
2022/01/09 11:19:54;;;;;;;17.80;12.00;;;0.40;99.90;;;;;;5092084;28;20544;-82
2022/01/09 11:22:21;;;;;;;18.42;11.27;;;0.60;99.90;;;;;;5092414;28;20024;-80
2022/01/09 11:25:21;;;;;;;18.20;11.18;;;0.40;99.90;;;;;;5091913;28;20031;-80
2022/01/09 11:28:03;;;;;;;18.52;11.27;;;0.60;99.90;;;;;;5091431;28;20048;-79
2022/01/09 11:31:12;;;;;;;19.98;11.40;;;0.60;99.90;;;;;;5091754;28;20502;-80
2022/01/09 11:33:44;;;;;;;15.93;9.63;;;0.70;99.90;;;;;;5044781;28;20036;-80
2022/01/09 11:36:23;;;;;;;18.20;10.60;;;0.80;99.90;;;;;;5091455;28;20080;-80
2022/01/09 11:39:11;;;;;;;19.25;11.40;;;1.20;99.90;;;;;;5091238;28;20425;-81
2022/01/09 11:41:42;;;;;;;19.05;11.88;;;1.00;99.90;;;;;;5091002;28;20036;-79
2022/01/09 11:44:10;;;;;;;17.85;11.80;;;1.00;99.90;;;;;;5091499;28;20034;-81
2022/01/09 11:46:59;;;;;;;19.58;11.38;;;1.00;99.90;;;;;;5091393;28;20463;-78
2022/01/09 11:49:26;;;;;;;18.42;11.45;;;1.00;99.90;;;;;;5091095;28;20029;-79
2022/01/09 11:51:56;;;;;;;20.15;12.23;;;0.90;99.90;;;;;;5090893;28;20035;-79
2022/01/09 11:54:22;;;;;;;21.73;13.52;;;0.90;99.90;;;;;;5092107;28;20027;-79
2022/01/09 11:57:06;;;;;;;22.75;13.23;;;1.20;99.90;;;;;;5090745;28;20043;-79
2022/01/09 11:59:37;;;;;;;20.20;11.68;;;1.40;99.90;;;;;;5091273;28;20035;-81
2022/01/09 12:02:29;;;;;;;21.27;13.02;;;1.00;99.90;;;;;;5091695;28;20115;-80
2022/01/09 12:05:03;;;;;;;21.23;13.25;;;1.20;99.90;;;;;;5091211;28;20352;-78
2022/01/09 12:07:32;;;;;;;20.23;11.98;;;1.30;99.90;;;;;;5092074;28;20047;-79
2022/01/09 12:09:59;;;;;;;21.10;12.65;;;1.60;99.90;;;;;;5090998;28;20024;-80
2022/01/09 12:12:45;;;;;;;54.97;24.55;;;1.50;99.90;;;;;;5091696;28;20032;-79
2022/01/09 12:15:11;;;;;;;28.48;18.02;;;2.30;99.90;;;;;;5091016;28;20112;-82
2022/01/09 12:17:42;;;;;;;22.35;13.52;;;2.40;99.90;;;;;;5090797;28;20064;-81
2022/01/09 12:20:14;;;;;;;19.92;12.43;;;2.30;99.90;;;;;;5091119;28;20110;-81
2022/01/09 12:22:46;;;;;;;17.73;11.30;;;2.10;99.70;;;;;;5091332;28;20028;-80
2022/01/09 12:25:30;;;;;;;20.75;11.68;;;1.90;99.40;;;;;;5077830;28;20028;-80
2022/01/09 12:28:09;;;;;;;20.65;12.05;;;1.70;99.70;;;;;;5075262;28;20105;-80
2022/01/09 12:30:48;;;;;;;19.00;11.40;;;1.60;99.90;;;;;;5075304;28;20024;-81
2022/01/09 12:33:27;;;;;;;65.97;38.97;;;1.50;99.90;;;;;;5077867;28;20123;-80